Time;durP1;ratioP1;P1;durP2;ratioP2;P2;SDS_P1;SDS_P2;PMS_P1;PMS_P2;Temp;Humidity;BMP_temperature;BMP_pressure;BME280_temperature;BME280_humidity;BME280_pressure;Samples;Min_cycle;Max_cycle;Signal;HPM_P1;HPM_P2
2024/04/21 00:38:16;;;;;;;5.38;2.97;;;;;;;6.17;nan;101833.06;5033851;22;20173;-93
2024/04/21 00:43:33;;;;;;;8.07;2.92;;;;;;;5.99;nan;101811.94;5342395;22;20027;-96
2024/04/21 00:53:50;;;;;;;8.38;3.25;;;;;;;5.90;nan;101796.72;5468304;22;20082;-96
2024/04/21 00:56:19;;;;;;;5.78;2.75;;;;;;;6.02;nan;101810.22;5202862;27;20004;-96
2024/04/21 01:01:52;;;;;;;12.38;2.58;;;;;;;6.08;nan;101802.44;5342317;22;20025;-96
2024/04/21 01:04:18;;;;;;;6.35;2.80;;;;;;;5.93;nan;101788.97;5200847;27;20052;-95
2024/04/21 01:06:46;;;;;;;8.02;2.40;;;;;;;5.94;nan;101793.25;5202880;27;20000;-96
2024/04/21 01:09:14;;;;;;;6.53;2.63;;;;;;;5.91;nan;101793.28;5203142;27;20044;-95
2024/04/21 01:22:31;;;;;;;16.92;3.75;;;;;;;5.72;nan;101790.16;5201363;22;20061;-96
2024/04/21 01:24:58;;;;;;;10.48;2.70;;;;;;;5.78;nan;101786.66;5202603;27;20007;-96
2024/04/21 01:27:23;;;;;;;5.80;2.80;;;;;;;5.70;nan;101788.47;5201527;27;20005;-95
2024/04/21 01:29:49;;;;;;;6.75;3.80;;;;;;;5.71;nan;101792.75;5202464;27;20052;-96
2024/04/21 01:48:52;;;;;;;8.80;4.65;;;;;;;5.80;nan;101800.28;6367472;22;20024;31
2024/04/21 01:51:20;;;;;;;9.85;3.63;;;;;;;5.81;nan;101801.97;5844176;22;20011;-96
2024/04/21 03:08:52;;;;;;;9.98;3.45;;;;;;;5.84;nan;101811.34;6364964;22;20935;31
2024/04/21 03:25:55;;;;;;;11.40;4.00;;;;;;;5.72;nan;101825.19;6279984;22;20219;31
2024/04/21 06:59:37;;;;;;;12.43;2.87;;;;;;;7.38;nan;101938.59;5421506;22;20007;31
2024/04/21 07:15:43;;;;;;;10.60;2.63;;;;;;;8.11;nan;101933.56;5904712;22;20019;-95
2024/04/21 07:20:49;;;;;;;9.52;2.78;;;;;;;8.21;nan;101939.34;5511873;22;20025;-96
2024/04/21 07:23:14;;;;;;;9.90;2.80;;;;;;;8.11;nan;101945.59;5196952;27;20001;-95
2024/04/21 07:25:40;;;;;;;13.45;2.92;;;;;;;8.13;nan;101947.25;5196142;27;20005;-95
2024/04/21 07:28:05;;;;;;;10.68;2.88;;;;;;;8.14;nan;101941.25;5196543;27;20016;-96
2024/04/21 07:30:53;;;;;;;12.27;3.20;;;;;;;8.12;nan;101953.28;5302109;22;20013;-96
2024/04/21 07:33:18;;;;;;;12.20;2.83;;;;;;;7.99;nan;101943.31;5199188;27;19996;-96
2024/04/21 07:35:44;;;;;;;11.63;2.97;;;;;;;8.14;nan;101941.25;5199996;27;20004;-96
2024/04/21 07:38:09;;;;;;;12.00;2.58;;;;;;;8.33;nan;101943.38;5346037;22;20016;-96
2024/04/21 07:40:35;;;;;;;19.02;3.20;;;;;;;8.37;nan;101947.56;5200229;27;20000;-96
2024/04/21 07:43:00;;;;;;;16.45;2.97;;;;;;;8.53;nan;101951.50;5200589;27;20008;-94
2024/04/21 07:45:28;;;;;;;14.90;3.35;;;;;;;8.68;nan;101950.28;5199672;27;20001;-96
2024/04/21 07:50:44;;;;;;;11.40;3.80;;;;;;;8.74;nan;101956.97;5701576;22;20999;-96
2024/04/21 07:53:10;;;;;;;11.90;3.17;;;;;;;8.75;nan;101968.94;5199866;27;20412;-95
2024/04/21 07:55:35;;;;;;;12.15;3.55;;;;;;;8.68;nan;101962.25;5211700;22;19993;-96
2024/04/21 07:58:01;;;;;;;12.00;3.70;;;;;;;8.83;nan;101956.75;5198235;27;19992;-96
2024/04/21 08:00:27;;;;;;;11.18;2.75;;;;;;;8.89;nan;101972.03;5666728;22;20032;-95
2024/04/21 08:02:58;;;;;;;9.43;3.08;;;;;;;8.76;nan;101968.09;5195937;27;20003;-96
2024/04/21 08:05:25;;;;;;;9.33;2.67;;;;;;;8.86;nan;101959.25;5351602;22;20027;-95
2024/04/21 08:07:51;;;;;;;13.38;3.17;;;;;;;8.99;nan;101955.44;5197622;27;20041;-96
2024/04/21 08:17:56;;;;;;;7.47;2.63;;;;;;;9.35;nan;101972.53;5173614;27;20500;-96
2024/04/21 08:20:25;;;;;;;8.18;2.33;;;;;;;9.20;nan;101968.66;5163936;27;20050;-95
2024/04/21 08:22:50;;;;;;;8.43;2.47;;;;;;;9.43;nan;101952.53;5170053;27;19997;-96
2024/04/21 08:25:16;;;;;;;11.00;2.70;;;;;;;9.49;nan;101957.53;5234856;22;20022;-96
2024/04/21 08:30:19;;;;;;;7.45;2.25;;;;;;;9.45;nan;101961.06;5675695;22;20028;-96
2024/04/21 08:32:46;;;;;;;23.95;2.70;;;;;;;9.56;nan;101955.59;5202743;27;20004;-96
2024/04/21 08:35:12;;;;;;;8.85;2.72;;;;;;;10.12;nan;101958.25;5263700;22;20005;-96
2024/04/21 08:37:37;;;;;;;7.65;2.38;;;;;;;10.04;nan;101960.19;5195724;27;20011;-96
2024/04/21 08:40:03;;;;;;;7.45;2.53;;;;;;;9.81;nan;101964.31;5197292;27;20004;-96
2024/04/21 08:42:34;;;;;;;14.93;3.10;;;;;;;9.85;nan;101960.78;5360292;22;20000;-95
2024/04/21 08:50:16;;;;;;;14.63;3.72;;;;;;;10.71;nan;101955.47;5987993;22;20027;-95
2024/04/21 08:52:41;;;;;;;10.13;3.08;;;;;;;11.52;nan;101956.94;5473784;22;20011;-95
2024/04/21 08:55:07;;;;;;;8.45;2.35;;;;;;;12.55;nan;101949.50;5202095;27;20003;-96
2024/04/21 09:10:45;;;;;;;10.20;2.88;;;;;;;13.31;nan;101950.56;5269330;22;20057;-95
2024/04/21 12:44:13;;;;;;;3.20;0.80;;;;;;;22.31;nan;101939.56;6361201;22;20090;-92
2024/04/21 12:52:43;;;;;;;10.93;1.10;;;;;;;20.64;nan;101951.03;2268962;22;20435;-92
2024/04/21 15:54:46;;;;;;;6.77;1.17;;;;;;;13.52;nan;101916.81;6366868;22;20006;31
2024/04/21 20:44:36;;;;;;;4.43;0.75;;;;;;;7.88;nan;101979.53;5874203;22;20017;-96
2024/04/21 20:47:01;;;;;;;5.88;1.52;;;;;;;7.65;nan;101983.41;5220411;27;19996;-95
2024/04/21 20:51:55;;;;;;;6.75;1.42;;;;;;;7.61;nan;101981.81;5884691;22;20011;-96
2024/04/21 21:02:06;;;;;;;9.48;1.27;;;;;;;7.64;nan;101986.88;5364416;22;20042;-96
2024/04/21 21:04:32;;;;;;;7.22;1.20;;;;;;;7.51;nan;101980.31;5605367;22;20012;-96
2024/04/21 21:06:57;;;;;;;11.30;1.25;;;;;;;7.54;nan;101987.94;5211684;27;20060;-96
2024/04/21 21:09:23;;;;;;;5.95;1.35;;;;;;;7.46;nan;101982.09;5192152;27;20004;-95
2024/04/21 21:11:51;;;;;;;4.25;0.95;;;;;;;7.52;nan;101997.41;5210062;27;20063;-96
2024/04/21 21:14:16;;;;;;;4.93;1.13;;;;;;;7.57;nan;101985.31;5189962;27;20060;-96
2024/04/21 21:16:41;;;;;;;5.20;1.20;;;;;;;7.64;nan;101988.59;5182621;27;20008;-95
2024/04/21 21:19:07;;;;;;;4.00;0.85;;;;;;;7.59;nan;101998.97;5233694;22;20012;-95
2024/04/21 21:21:32;;;;;;;4.15;0.93;;;;;;;7.50;nan;101981.16;5180483;27;20016;-95
2024/04/21 21:23:58;;;;;;;5.10;1.13;;;;;;;7.51;nan;102000.88;5259578;22;20009;-96
2024/04/21 21:26:23;;;;;;;8.52;1.48;;;;;;;7.41;nan;101983.91;5188774;27;19996;-95
2024/04/21 21:28:50;;;;;;;2.75;1.23;;;;;;;7.35;nan;101984.03;5157024;27;19999;-95
2024/04/21 21:31:15;;;;;;;3.15;0.73;;;;;;;7.37;nan;101982.28;5155715;27;20041;-95
2024/04/21 21:33:40;;;;;;;10.68;1.88;;;;;;;7.38;nan;101995.09;5228102;22;20036;-94
2024/04/21 21:36:07;;;;;;;2.75;0.65;;;;;;;7.35;nan;102002.88;5194354;27;20461;-96
2024/04/21 21:38:36;;;;;;;4.20;1.10;;;;;;;7.25;nan;101998.78;5140768;27;20020;-96
2024/04/21 21:41:02;;;;;;;9.95;1.67;;;;;;;7.27;nan;102005.59;5186767;27;20015;-94
2024/04/21 21:43:32;;;;;;;4.22;1.20;;;;;;;7.18;nan;101998.03;5156033;27;20011;-94
2024/04/21 21:45:57;;;;;;;3.00;1.13;;;;;;;7.22;nan;102011.69;5166080;27;20008;-95
2024/04/21 21:48:22;;;;;;;5.30;1.13;;;;;;;7.11;nan;102017.00;5184879;27;20036;-95
2024/04/21 21:50:48;;;;;;;7.57;1.33;;;;;;;7.13;nan;102020.38;5183354;27;20053;-94
2024/04/21 21:53:13;;;;;;;5.57;0.90;;;;;;;7.08;nan;102019.63;5175873;27;19997;-93
2024/04/21 21:55:43;;;;;;;6.85;1.67;;;;;;;7.14;nan;102018.66;5148264;27;20063;-96
2024/04/21 21:58:18;;;;;;;5.50;0.90;;;;;;;7.09;nan;102018.72;5148998;27;20098;-96
2024/04/21 22:00:43;;;;;;;3.95;0.93;;;;;;;6.97;nan;102021.50;5131865;28;20002;-96
2024/04/21 22:03:09;;;;;;;6.18;1.60;;;;;;;6.97;nan;102024.09;5125473;27;19998;-95
2024/04/21 22:05:35;;;;;;;1.98;0.82;;;;;;;6.86;nan;102022.56;5123901;27;20005;-95
2024/04/21 22:08:07;;;;;;;6.15;1.20;;;;;;;6.96;nan;102027.53;5170065;27;20057;-96
2024/04/21 22:10:43;;;;;;;6.28;0.93;;;;;;;6.82;nan;102007.22;5598311;22;20008;-96
2024/04/21 22:13:09;;;;;;;6.05;1.17;;;;;;;6.94;nan;102009.59;5230972;27;19996;-96
2024/04/21 22:23:13;;;;;;;4.53;1.40;;;;;;;6.57;nan;102010.19;6018045;22;20046;-96
2024/04/21 22:28:14;;;;;;;5.22;1.30;;;;;;;6.32;nan;102007.16;5534183;22;20028;-96
2024/04/21 22:30:40;;;;;;;6.75;1.55;;;;;;;6.40;nan;102023.25;5165546;27;20008;-94
2024/04/21 22:33:06;;;;;;;6.90;1.27;;;;;;;6.36;nan;102011.34;5189407;27;20016;-95
2024/04/21 22:35:31;;;;;;;5.40;1.13;;;;;;;6.22;nan;102015.84;5322757;22;20009;-94
2024/04/21 22:37:58;;;;;;;3.92;0.98;;;;;;;6.16;nan;102018.47;5185035;27;20049;-95
2024/04/21 22:40:23;;;;;;;7.75;1.23;;;;;;;6.21;nan;102011.56;5182029;27;20004;-95
2024/04/21 22:42:52;;;;;;;6.25;1.30;;;;;;;6.17;nan;102015.91;5190229;27;20053;-96
2024/04/21 22:45:18;;;;;;;4.18;1.20;;;;;;;6.08;nan;102010.91;5163016;27;20013;-96
2024/04/21 22:47:52;;;;;;;5.97;1.10;;;;;;;5.99;nan;102009.28;5161587;27;20023;-96
2024/04/21 22:50:20;;;;;;;7.55;1.48;;;;;;;6.11;nan;102010.84;5165455;27;20017;-96
2024/04/21 22:52:46;;;;;;;5.10;1.27;;;;;;;6.15;nan;102021.94;5157106;27;20072;-96
2024/04/21 22:55:11;;;;;;;6.43;1.60;;;;;;;6.07;nan;102014.34;5162555;27;20009;-96
2024/04/21 22:57:41;;;;;;;4.78;1.70;;;;;;;6.04;nan;102013.53;5197390;27;19997;-96
2024/04/21 23:00:16;;;;;;;7.55;1.38;;;;;;;5.98;nan;102020.44;5167737;27;20013;-96
2024/04/21 23:02:42;;;;;;;3.85;0.93;;;;;;;5.98;nan;102017.88;5372643;22;20006;-94
2024/04/21 23:05:10;;;;;;;8.27;1.60;;;;;;;5.86;nan;102020.56;5199103;22;20027;-95
2024/04/21 23:07:36;;;;;;;9.30;1.73;;;;;;;5.89;nan;102024.78;5198776;27;20008;-95
2024/04/21 23:10:02;;;;;;;7.43;1.50;;;;;;;5.77;nan;102025.78;5196243;27;20015;-96
2024/04/21 23:12:27;;;;;;;8.65;1.17;;;;;;;5.73;nan;102019.00;5198174;27;20008;-95
2024/04/21 23:14:53;;;;;;;6.32;1.10;;;;;;;5.73;nan;102027.53;5199752;27;20025;-96
2024/04/21 23:17:18;;;;;;;5.47;1.88;;;;;;;5.79;nan;102031.75;5200640;27;20007;-96
2024/04/21 23:19:44;;;;;;;9.00;1.40;;;;;;;5.78;nan;102023.22;5195955;27;20008;-95
2024/04/21 23:22:14;;;;;;;3.58;1.00;;;;;;;5.75;nan;102022.38;5196077;27;19996;-96
2024/04/21 23:24:39;;;;;;;7.53;1.30;;;;;;;5.64;nan;102019.13;5194408;27;20007;-95
2024/04/21 23:27:05;;;;;;;4.70;1.35;;;;;;;5.74;nan;102016.41;5193598;27;20000;-95
2024/04/21 23:29:31;;;;;;;7.35;1.50;;;;;;;5.67;nan;102039.56;5194197;27;20001;-96
2024/04/21 23:31:57;;;;;;;9.75;1.80;;;;;;;5.52;nan;102020.09;5192210;27;20075;-96
2024/04/21 23:34:22;;;;;;;5.78;1.90;;;;;;;5.67;nan;102025.03;5190700;27;20008;-95
2024/04/21 23:36:48;;;;;;;6.93;1.52;;;;;;;5.65;nan;102021.66;5191130;27;20016;-96
2024/04/21 23:39:14;;;;;;;4.40;1.02;;;;;;;5.69;nan;102022.47;5192679;27;20340;-95
2024/04/21 23:41:39;;;;;;;7.20;1.33;;;;;;;5.68;nan;102015.63;5222372;22;20013;-94
2024/04/21 23:44:05;;;;;;;3.10;1.08;;;;;;;5.72;nan;102027.56;5189980;27;20000;-95
2024/04/21 23:46:31;;;;;;;6.07;1.33;;;;;;;5.65;nan;102023.38;5188693;27;20001;-95
2024/04/21 23:48:56;;;;;;;8.75;1.70;;;;;;;5.66;nan;102027.63;5158252;27;20016;-96
2024/04/21 23:51:22;;;;;;;8.25;1.92;;;;;;;5.63;nan;102027.66;5158331;27;20050;-95
2024/04/21 23:53:48;;;;;;;5.85;1.60;;;;;;;5.64;nan;102029.38;5161560;27;20002;-96
2024/04/21 23:56:15;;;;;;;6.53;1.48;;;;;;;5.59;nan;102019.16;5163174;27;20009;-96
2024/04/21 23:58:40;;;;;;;5.57;1.40;;;;;;;5.57;nan;102019.19;5166589;27;19997;-95
